sensor_id;sensor_type;location;lat;lon;timestamp;P1;durP1;ratioP1;P2;durP2;ratioP2
35795;SDS011;21916;52.428;13.302;2024-02-14T00:02:13;12.05;;;6.60;;
35795;SDS011;21916;52.428;13.302;2024-02-14T00:04:39;10.63;;;5.85;;
35795;SDS011;21916;52.428;13.302;2024-02-14T00:07:05;14.55;;;6.22;;
35795;SDS011;21916;52.428;13.302;2024-02-14T00:09:31;9.20;;;6.15;;
35795;SDS011;21916;52.428;13.302;2024-02-14T00:11:58;13.55;;;6.80;;
35795;SDS011;21916;52.428;13.302;2024-02-14T00:14:24;10.90;;;5.68;;
35795;SDS011;21916;52.428;13.302;2024-02-14T00:16:50;10.60;;;6.43;;
35795;SDS011;21916;52.428;13.302;2024-02-14T00:19:16;9.77;;;6.15;;
35795;SDS011;21916;52.428;13.302;2024-02-14T00:21:42;11.88;;;6.72;;
35795;SDS011;21916;52.428;13.302;2024-02-14T00:24:08;13.60;;;6.47;;
35795;SDS011;21916;52.428;13.302;2024-02-14T00:26:34;11.07;;;6.65;;
35795;SDS011;21916;52.428;13.302;2024-02-14T00:29:00;9.20;;;5.63;;
35795;SDS011;21916;52.428;13.302;2024-02-14T00:31:26;10.52;;;5.88;;
35795;SDS011;21916;52.428;13.302;2024-02-14T00:34:10;12.18;;;5.78;;
35795;SDS011;21916;52.428;13.302;2024-02-14T00:36:36;11.10;;;6.25;;
35795;SDS011;21916;52.428;13.302;2024-02-14T00:39:03;11.13;;;6.60;;
35795;SDS011;21916;52.428;13.302;2024-02-14T00:41:29;11.63;;;5.68;;
35795;SDS011;21916;52.428;13.302;2024-02-14T00:43:55;11.32;;;5.32;;
35795;SDS011;21916;52.428;13.302;2024-02-14T00:46:21;10.50;;;5.68;;
35795;SDS011;21916;52.428;13.302;2024-02-14T00:48:47;10.40;;;5.85;;
35795;SDS011;21916;52.428;13.302;2024-02-14T00:51:13;10.43;;;5.38;;
35795;SDS011;21916;52.428;13.302;2024-02-14T00:53:39;8.45;;;5.70;;
35795;SDS011;21916;52.428;13.302;2024-02-14T00:56:04;8.75;;;5.72;;
35795;SDS011;21916;52.428;13.302;2024-02-14T00:58:31;10.45;;;5.55;;
35795;SDS011;21916;52.428;13.302;2024-02-14T01:00:56;11.85;;;5.75;;
35795;SDS011;21916;52.428;13.302;2024-02-14T01:03:23;14.02;;;5.35;;
35795;SDS011;21916;52.428;13.302;2024-02-14T01:05:49;12.63;;;5.07;;
35795;SDS011;21916;52.428;13.302;2024-02-14T01:08:15;11.25;;;5.10;;
35795;SDS011;21916;52.428;13.302;2024-02-14T01:10:42;9.90;;;5.13;;
35795;SDS011;21916;52.428;13.302;2024-02-14T01:13:08;7.60;;;4.78;;
35795;SDS011;21916;52.428;13.302;2024-02-14T01:15:34;7.43;;;4.82;;
35795;SDS011;21916;52.428;13.302;2024-02-14T01:18:00;9.45;;;5.80;;
35795;SDS011;21916;52.428;13.302;2024-02-14T01:20:25;9.85;;;5.82;;
35795;SDS011;21916;52.428;13.302;2024-02-14T01:22:51;8.00;;;5.07;;
35795;SDS011;21916;52.428;13.302;2024-02-14T01:25:23;10.02;;;4.88;;
35795;SDS011;21916;52.428;13.302;2024-02-14T01:27:49;7.65;;;4.90;;
35795;SDS011;21916;52.428;13.302;2024-02-14T01:30:22;8.63;;;4.75;;
35795;SDS011;21916;52.428;13.302;2024-02-14T01:32:50;7.57;;;4.47;;
35795;SDS011;21916;52.428;13.302;2024-02-14T01:35:18;10.85;;;4.90;;
35795;SDS011;21916;52.428;13.302;2024-02-14T01:37:44;10.05;;;4.97;;
35795;SDS011;21916;52.428;13.302;2024-02-14T01:40:10;14.80;;;5.50;;
35795;SDS011;21916;52.428;13.302;2024-02-14T01:42:50;7.63;;;5.13;;
35795;SDS011;21916;52.428;13.302;2024-02-14T01:45:26;8.25;;;5.00;;
35795;SDS011;21916;52.428;13.302;2024-02-14T01:47:59;11.65;;;4.93;;
35795;SDS011;21916;52.428;13.302;2024-02-14T01:50:25;9.65;;;4.43;;
35795;SDS011;21916;52.428;13.302;2024-02-14T01:52:58;9.43;;;4.78;;
35795;SDS011;21916;52.428;13.302;2024-02-14T01:55:25;10.85;;;5.15;;
35795;SDS011;21916;52.428;13.302;2024-02-14T01:57:54;9.70;;;5.28;;
35795;SDS011;21916;52.428;13.302;2024-02-14T02:00:20;7.63;;;4.43;;
35795;SDS011;21916;52.428;13.302;2024-02-14T02:02:47;12.40;;;4.80;;
35795;SDS011;21916;52.428;13.302;2024-02-14T02:05:18;11.27;;;5.45;;
35795;SDS011;21916;52.428;13.302;2024-02-14T02:07:44;10.35;;;5.40;;
35795;SDS011;21916;52.428;13.302;2024-02-14T02:10:13;7.30;;;4.90;;
35795;SDS011;21916;52.428;13.302;2024-02-14T02:12:44;8.82;;;4.60;;
35795;SDS011;21916;52.428;13.302;2024-02-14T02:15:30;8.13;;;5.25;;
35795;SDS011;21916;52.428;13.302;2024-02-14T02:18:19;6.95;;;4.78;;
35795;SDS011;21916;52.428;13.302;2024-02-14T02:21:05;8.60;;;5.05;;
35795;SDS011;21916;52.428;13.302;2024-02-14T02:23:33;10.05;;;5.13;;
35795;SDS011;21916;52.428;13.302;2024-02-14T02:26:00;8.57;;;4.43;;
35795;SDS011;21916;52.428;13.302;2024-02-14T02:28:45;7.75;;;5.07;;
35795;SDS011;21916;52.428;13.302;2024-02-14T02:31:12;8.68;;;4.38;;
35795;SDS011;21916;52.428;13.302;2024-02-14T02:33:39;7.72;;;4.22;;
35795;SDS011;21916;52.428;13.302;2024-02-14T02:36:05;12.32;;;5.32;;
35795;SDS011;21916;52.428;13.302;2024-02-14T02:38:52;10.88;;;4.68;;
35795;SDS011;21916;52.428;13.302;2024-02-14T02:41:38;11.95;;;4.72;;
35795;SDS011;21916;52.428;13.302;2024-02-14T02:44:22;8.05;;;5.15;;
35795;SDS011;21916;52.428;13.302;2024-02-14T02:47:06;10.02;;;4.65;;
35795;SDS011;21916;52.428;13.302;2024-02-14T02:49:52;9.02;;;4.65;;
35795;SDS011;21916;52.428;13.302;2024-02-14T02:52:38;7.35;;;4.63;;
35795;SDS011;21916;52.428;13.302;2024-02-14T02:55:24;6.90;;;4.47;;
35795;SDS011;21916;52.428;13.302;2024-02-14T02:57:59;9.75;;;4.50;;
35795;SDS011;21916;52.428;13.302;2024-02-14T03:00:24;6.50;;;4.50;;
35795;SDS011;21916;52.428;13.302;2024-02-14T03:03:09;10.32;;;4.85;;
35795;SDS011;21916;52.428;13.302;2024-02-14T03:05:54;9.10;;;4.82;;
35795;SDS011;21916;52.428;13.302;2024-02-14T03:08:35;7.63;;;4.82;;
35795;SDS011;21916;52.428;13.302;2024-02-14T03:11:24;6.97;;;4.75;;
35795;SDS011;21916;52.428;13.302;2024-02-14T03:14:12;6.88;;;4.35;;
35795;SDS011;21916;52.428;13.302;2024-02-14T03:16:59;9.60;;;4.97;;
35795;SDS011;21916;52.428;13.302;2024-02-14T03:19:25;11.10;;;4.57;;
35795;SDS011;21916;52.428;13.302;2024-02-14T03:21:55;10.40;;;4.55;;
35795;SDS011;21916;52.428;13.302;2024-02-14T03:24:22;10.95;;;4.28;;
35795;SDS011;21916;52.428;13.302;2024-02-14T03:26:51;10.43;;;5.43;;
35795;SDS011;21916;52.428;13.302;2024-02-14T03:29:19;9.95;;;4.90;;
35795;SDS011;21916;52.428;13.302;2024-02-14T03:31:45;10.07;;;4.70;;
35795;SDS011;21916;52.428;13.302;2024-02-14T03:34:12;9.48;;;5.00;;
35795;SDS011;21916;52.428;13.302;2024-02-14T03:36:37;9.48;;;4.30;;
35795;SDS011;21916;52.428;13.302;2024-02-14T03:39:04;9.50;;;5.65;;
35795;SDS011;21916;52.428;13.302;2024-02-14T03:41:32;11.63;;;5.32;;
35795;SDS011;21916;52.428;13.302;2024-02-14T03:43:58;8.63;;;4.93;;
35795;SDS011;21916;52.428;13.302;2024-02-14T03:46:26;10.98;;;4.97;;
35795;SDS011;21916;52.428;13.302;2024-02-14T03:48:53;7.53;;;4.93;;
35795;SDS011;21916;52.428;13.302;2024-02-14T03:51:25;9.00;;;4.63;;
35795;SDS011;21916;52.428;13.302;2024-02-14T03:53:50;11.88;;;5.22;;
35795;SDS011;21916;52.428;13.302;2024-02-14T03:56:16;12.65;;;5.72;;
35795;SDS011;21916;52.428;13.302;2024-02-14T03:58:42;10.38;;;4.93;;
35795;SDS011;21916;52.428;13.302;2024-02-14T04:01:08;9.55;;;5.38;;
35795;SDS011;21916;52.428;13.302;2024-02-14T04:03:34;9.65;;;5.82;;
35795;SDS011;21916;52.428;13.302;2024-02-14T04:06:01;9.93;;;5.85;;
35795;SDS011;21916;52.428;13.302;2024-02-14T04:08:27;10.45;;;5.40;;
35795;SDS011;21916;52.428;13.302;2024-02-14T04:10:55;8.20;;;5.05;;
35795;SDS011;21916;52.428;13.302;2024-02-14T04:13:21;10.48;;;4.80;;
35795;SDS011;21916;52.428;13.302;2024-02-14T04:15:47;10.10;;;5.63;;
35795;SDS011;21916;52.428;13.302;2024-02-14T04:18:14;11.70;;;5.72;;
35795;SDS011;21916;52.428;13.302;2024-02-14T04:20:43;10.05;;;5.40;;
35795;SDS011;21916;52.428;13.302;2024-02-14T04:23:09;9.25;;;5.30;;
35795;SDS011;21916;52.428;13.302;2024-02-14T04:25:35;12.55;;;5.78;;
35795;SDS011;21916;52.428;13.302;2024-02-14T04:28:05;10.75;;;5.63;;
35795;SDS011;21916;52.428;13.302;2024-02-14T04:30:31;10.23;;;6.32;;
35795;SDS011;21916;52.428;13.302;2024-02-14T04:33:06;15.23;;;5.75;;
35795;SDS011;21916;52.428;13.302;2024-02-14T04:35:33;9.82;;;5.30;;
35795;SDS011;21916;52.428;13.302;2024-02-14T04:37:59;13.93;;;5.85;;
35795;SDS011;21916;52.428;13.302;2024-02-14T04:40:24;11.68;;;6.32;;
35795;SDS011;21916;52.428;13.302;2024-02-14T04:42:50;9.23;;;5.20;;
35795;SDS011;21916;52.428;13.302;2024-02-14T04:45:16;11.82;;;7.22;;
35795;SDS011;21916;52.428;13.302;2024-02-14T04:47:52;8.98;;;5.15;;
35795;SDS011;21916;52.428;13.302;2024-02-14T04:50:18;10.00;;;5.55;;
35795;SDS011;21916;52.428;13.302;2024-02-14T04:52:47;11.57;;;6.18;;
35795;SDS011;21916;52.428;13.302;2024-02-14T04:55:12;10.70;;;5.68;;
35795;SDS011;21916;52.428;13.302;2024-02-14T04:57:39;12.13;;;5.78;;
35795;SDS011;21916;52.428;13.302;2024-02-14T05:00:05;10.60;;;5.85;;
35795;SDS011;21916;52.428;13.302;2024-02-14T05:02:34;8.23;;;5.25;;
35795;SDS011;21916;52.428;13.302;2024-02-14T05:05:00;9.35;;;5.38;;
35795;SDS011;21916;52.428;13.302;2024-02-14T05:07:26;13.57;;;5.70;;
35795;SDS011;21916;52.428;13.302;2024-02-14T05:09:52;11.55;;;6.15;;
35795;SDS011;21916;52.428;13.302;2024-02-14T05:12:20;8.93;;;5.45;;
35795;SDS011;21916;52.428;13.302;2024-02-14T05:14:46;11.85;;;5.95;;
35795;SDS011;21916;52.428;13.302;2024-02-14T05:17:13;8.05;;;5.15;;
35795;SDS011;21916;52.428;13.302;2024-02-14T05:19:41;10.45;;;5.10;;
35795;SDS011;21916;52.428;13.302;2024-02-14T05:22:08;10.07;;;5.35;;
35795;SDS011;21916;52.428;13.302;2024-02-14T05:24:33;8.65;;;4.75;;
35795;SDS011;21916;52.428;13.302;2024-02-14T05:27:03;10.02;;;5.47;;
35795;SDS011;21916;52.428;13.302;2024-02-14T05:29:33;10.85;;;4.85;;
35795;SDS011;21916;52.428;13.302;2024-02-14T05:31:58;9.70;;;5.32;;
35795;SDS011;21916;52.428;13.302;2024-02-14T05:34:24;7.57;;;5.03;;
35795;SDS011;21916;52.428;13.302;2024-02-14T05:36:50;8.95;;;4.60;;
35795;SDS011;21916;52.428;13.302;2024-02-14T05:39:17;14.15;;;6.13;;
35795;SDS011;21916;52.428;13.302;2024-02-14T05:41:44;14.43;;;5.93;;
35795;SDS011;21916;52.428;13.302;2024-02-14T05:44:10;10.13;;;5.07;;
35795;SDS011;21916;52.428;13.302;2024-02-14T05:46:37;8.88;;;5.28;;
35795;SDS011;21916;52.428;13.302;2024-02-14T05:49:02;8.50;;;5.07;;
35795;SDS011;21916;52.428;13.302;2024-02-14T05:51:28;13.13;;;5.32;;
35795;SDS011;21916;52.428;13.302;2024-02-14T05:53:54;10.18;;;5.10;;
35795;SDS011;21916;52.428;13.302;2024-02-14T05:56:20;9.82;;;5.30;;
35795;SDS011;21916;52.428;13.302;2024-02-14T05:58:46;10.55;;;5.60;;
35795;SDS011;21916;52.428;13.302;2024-02-14T06:01:12;13.15;;;5.38;;
35795;SDS011;21916;52.428;13.302;2024-02-14T06:03:37;8.02;;;4.35;;
35795;SDS011;21916;52.428;13.302;2024-02-14T06:06:03;11.45;;;5.20;;
35795;SDS011;21916;52.428;13.302;2024-02-14T06:08:30;13.85;;;6.05;;
35795;SDS011;21916;52.428;13.302;2024-02-14T06:10:56;8.63;;;5.47;;
35795;SDS011;21916;52.428;13.302;2024-02-14T06:13:22;8.38;;;4.68;;
35795;SDS011;21916;52.428;13.302;2024-02-14T06:15:51;7.28;;;4.57;;
35795;SDS011;21916;52.428;13.302;2024-02-14T06:18:16;9.98;;;5.35;;
35795;SDS011;21916;52.428;13.302;2024-02-14T06:20:42;11.20;;;5.18;;
35795;SDS011;21916;52.428;13.302;2024-02-14T06:23:08;12.35;;;5.18;;
35795;SDS011;21916;52.428;13.302;2024-02-14T06:25:38;9.48;;;4.85;;
35795;SDS011;21916;52.428;13.302;2024-02-14T06:28:08;8.80;;;4.70;;
35795;SDS011;21916;52.428;13.302;2024-02-14T06:30:35;8.63;;;5.07;;
35795;SDS011;21916;52.428;13.302;2024-02-14T06:33:02;9.82;;;4.78;;
35795;SDS011;21916;52.428;13.302;2024-02-14T06:35:28;10.85;;;4.97;;
35795;SDS011;21916;52.428;13.302;2024-02-14T06:37:55;8.93;;;4.65;;
35795;SDS011;21916;52.428;13.302;2024-02-14T06:40:21;11.43;;;5.40;;
35795;SDS011;21916;52.428;13.302;2024-02-14T06:42:47;10.27;;;4.85;;
35795;SDS011;21916;52.428;13.302;2024-02-14T06:45:16;11.18;;;5.47;;
35795;SDS011;21916;52.428;13.302;2024-02-14T06:47:53;8.35;;;4.50;;
35795;SDS011;21916;52.428;13.302;2024-02-14T06:50:19;9.68;;;4.88;;
35795;SDS011;21916;52.428;13.302;2024-02-14T06:52:45;12.90;;;5.05;;
35795;SDS011;21916;52.428;13.302;2024-02-14T06:55:11;12.02;;;4.38;;
35795;SDS011;21916;52.428;13.302;2024-02-14T06:57:39;10.18;;;5.10;;
35795;SDS011;21916;52.428;13.302;2024-02-14T07:00:05;10.27;;;5.00;;
35795;SDS011;21916;52.428;13.302;2024-02-14T07:02:35;7.75;;;5.47;;
35795;SDS011;21916;52.428;13.302;2024-02-14T07:05:01;8.48;;;5.50;;
35795;SDS011;21916;52.428;13.302;2024-02-14T07:07:32;12.07;;;5.80;;
35795;SDS011;21916;52.428;13.302;2024-02-14T07:09:58;10.18;;;5.00;;
35795;SDS011;21916;52.428;13.302;2024-02-14T07:12:23;15.32;;;5.13;;
35795;SDS011;21916;52.428;13.302;2024-02-14T07:14:50;8.85;;;4.43;;
35795;SDS011;21916;52.428;13.302;2024-02-14T07:17:16;9.30;;;4.50;;
35795;SDS011;21916;52.428;13.302;2024-02-14T07:19:42;6.28;;;4.05;;
35795;SDS011;21916;52.428;13.302;2024-02-14T07:22:13;8.95;;;4.82;;
35795;SDS011;21916;52.428;13.302;2024-02-14T07:24:44;6.80;;;3.78;;
35795;SDS011;21916;52.428;13.302;2024-02-14T07:27:12;9.10;;;4.68;;
35795;SDS011;21916;52.428;13.302;2024-02-14T07:29:39;8.60;;;4.70;;
35795;SDS011;21916;52.428;13.302;2024-02-14T07:32:05;14.13;;;5.35;;
35795;SDS011;21916;52.428;13.302;2024-02-14T07:34:33;8.05;;;4.13;;
35795;SDS011;21916;52.428;13.302;2024-02-14T07:36:59;9.38;;;4.28;;
35795;SDS011;21916;52.428;13.302;2024-02-14T07:39:25;10.45;;;5.03;;
35795;SDS011;21916;52.428;13.302;2024-02-14T07:41:51;9.02;;;4.15;;
35795;SDS011;21916;52.428;13.302;2024-02-14T07:44:17;7.45;;;4.30;;
35795;SDS011;21916;52.428;13.302;2024-02-14T07:46:43;6.32;;;3.65;;
35795;SDS011;21916;52.428;13.302;2024-02-14T07:49:09;7.45;;;4.00;;
35795;SDS011;21916;52.428;13.302;2024-02-14T07:51:35;8.70;;;3.60;;
35795;SDS011;21916;52.428;13.302;2024-02-14T07:54:03;8.23;;;3.80;;
35795;SDS011;21916;52.428;13.302;2024-02-14T07:56:29;8.75;;;3.75;;
35795;SDS011;21916;52.428;13.302;2024-02-14T07:58:58;6.15;;;3.92;;
35795;SDS011;21916;52.428;13.302;2024-02-14T08:01:25;12.32;;;3.70;;
35795;SDS011;21916;52.428;13.302;2024-02-14T08:03:51;8.45;;;2.97;;
35795;SDS011;21916;52.428;13.302;2024-02-14T08:06:16;8.90;;;3.40;;
35795;SDS011;21916;52.428;13.302;2024-02-14T08:08:43;7.68;;;3.25;;
35795;SDS011;21916;52.428;13.302;2024-02-14T08:11:35;6.15;;;3.13;;
35795;SDS011;21916;52.428;13.302;2024-02-14T08:14:20;7.90;;;3.30;;
35795;SDS011;21916;52.428;13.302;2024-02-14T08:16:46;6.45;;;3.30;;
35795;SDS011;21916;52.428;13.302;2024-02-14T08:19:12;8.52;;;3.65;;
35795;SDS011;21916;52.428;13.302;2024-02-14T08:21:38;5.47;;;3.35;;
35795;SDS011;21916;52.428;13.302;2024-02-14T08:24:03;6.03;;;2.95;;
35795;SDS011;21916;52.428;13.302;2024-02-14T08:26:32;5.57;;;2.92;;
35795;SDS011;21916;52.428;13.302;2024-02-14T08:29:01;5.63;;;2.60;;
35795;SDS011;21916;52.428;13.302;2024-02-14T08:31:27;5.40;;;2.90;;
35795;SDS011;21916;52.428;13.302;2024-02-14T08:34:00;5.45;;;2.70;;
35795;SDS011;21916;52.428;13.302;2024-02-14T08:36:32;5.53;;;2.50;;
35795;SDS011;21916;52.428;13.302;2024-02-14T08:39:00;7.53;;;2.90;;
35795;SDS011;21916;52.428;13.302;2024-02-14T08:41:25;7.40;;;2.50;;
35795;SDS011;21916;52.428;13.302;2024-02-14T08:43:51;4.13;;;2.20;;
35795;SDS011;21916;52.428;13.302;2024-02-14T08:46:17;4.80;;;2.35;;
35795;SDS011;21916;52.428;13.302;2024-02-14T08:48:43;4.25;;;2.50;;
35795;SDS011;21916;52.428;13.302;2024-02-14T08:51:13;8.88;;;2.95;;
35795;SDS011;21916;52.428;13.302;2024-02-14T08:53:40;3.92;;;2.67;;
35795;SDS011;21916;52.428;13.302;2024-02-14T08:56:09;5.75;;;2.33;;
35795;SDS011;21916;52.428;13.302;2024-02-14T08:58:39;4.85;;;2.88;;
35795;SDS011;21916;52.428;13.302;2024-02-14T09:01:05;8.32;;;2.88;;
35795;SDS011;21916;52.428;13.302;2024-02-14T09:03:32;4.45;;;2.55;;
35795;SDS011;21916;52.428;13.302;2024-02-14T09:05:58;6.07;;;2.22;;
35795;SDS011;21916;52.428;13.302;2024-02-14T09:08:23;4.88;;;2.35;;
35795;SDS011;21916;52.428;13.302;2024-02-14T09:10:53;3.38;;;2.13;;
35795;SDS011;21916;52.428;13.302;2024-02-14T09:13:22;3.78;;;2.00;;
35795;SDS011;21916;52.428;13.302;2024-02-14T09:15:51;5.78;;;2.95;;
35795;SDS011;21916;52.428;13.302;2024-02-14T09:18:18;4.63;;;1.80;;
35795;SDS011;21916;52.428;13.302;2024-02-14T09:20:44;3.95;;;2.00;;
35795;SDS011;21916;52.428;13.302;2024-02-14T09:23:12;4.70;;;1.70;;
35795;SDS011;21916;52.428;13.302;2024-02-14T09:25:39;3.53;;;2.47;;
35795;SDS011;21916;52.428;13.302;2024-02-14T09:28:06;3.50;;;1.73;;
35795;SDS011;21916;52.428;13.302;2024-02-14T09:30:32;5.38;;;1.83;;
35795;SDS011;21916;52.428;13.302;2024-02-14T09:32:58;5.28;;;2.05;;
35795;SDS011;21916;52.428;13.302;2024-02-14T09:35:25;6.13;;;2.08;;
35795;SDS011;21916;52.428;13.302;2024-02-14T09:37:51;8.30;;;2.40;;
35795;SDS011;21916;52.428;13.302;2024-02-14T09:40:18;4.20;;;2.22;;
35795;SDS011;21916;52.428;13.302;2024-02-14T09:42:47;4.45;;;2.30;;
35795;SDS011;21916;52.428;13.302;2024-02-14T09:45:22;5.72;;;2.50;;
35795;SDS011;21916;52.428;13.302;2024-02-14T09:47:50;4.40;;;2.40;;
35795;SDS011;21916;52.428;13.302;2024-02-14T09:50:17;5.15;;;1.90;;
35795;SDS011;21916;52.428;13.302;2024-02-14T09:52:48;5.03;;;2.08;;
35795;SDS011;21916;52.428;13.302;2024-02-14T09:55:16;6.80;;;2.45;;
35795;SDS011;21916;52.428;13.302;2024-02-14T09:57:43;4.85;;;2.55;;
35795;SDS011;21916;52.428;13.302;2024-02-14T10:00:10;5.07;;;2.35;;
35795;SDS011;21916;52.428;13.302;2024-02-14T10:02:36;4.38;;;2.58;;
35795;SDS011;21916;52.428;13.302;2024-02-14T10:05:08;5.57;;;2.00;;
35795;SDS011;21916;52.428;13.302;2024-02-14T10:07:41;5.22;;;2.60;;
35795;SDS011;21916;52.428;13.302;2024-02-14T10:10:08;5.82;;;2.38;;
35795;SDS011;21916;52.428;13.302;2024-02-14T10:12:35;4.72;;;1.88;;
35795;SDS011;21916;52.428;13.302;2024-02-14T10:15:15;4.47;;;2.38;;
35795;SDS011;21916;52.428;13.302;2024-02-14T10:17:46;6.70;;;3.07;;
35795;SDS011;21916;52.428;13.302;2024-02-14T10:20:18;4.30;;;2.80;;
35795;SDS011;21916;52.428;13.302;2024-02-14T10:22:47;7.85;;;2.55;;
35795;SDS011;21916;52.428;13.302;2024-02-14T10:25:16;6.28;;;2.22;;
35795;SDS011;21916;52.428;13.302;2024-02-14T10:27:44;3.22;;;2.00;;
35795;SDS011;21916;52.428;13.302;2024-02-14T10:30:13;3.80;;;1.90;;
35795;SDS011;21916;52.428;13.302;2024-02-14T10:32:43;5.40;;;2.65;;
35795;SDS011;21916;52.428;13.302;2024-02-14T10:35:12;6.03;;;2.53;;
35795;SDS011;21916;52.428;13.302;2024-02-14T10:37:39;4.57;;;1.95;;
35795;SDS011;21916;52.428;13.302;2024-02-14T10:40:06;3.75;;;1.95;;
35795;SDS011;21916;52.428;13.302;2024-02-14T10:42:35;8.65;;;3.05;;
35795;SDS011;21916;52.428;13.302;2024-02-14T10:45:04;5.75;;;2.53;;
35795;SDS011;21916;52.428;13.302;2024-02-14T10:47:42;5.68;;;2.40;;
35795;SDS011;21916;52.428;13.302;2024-02-14T10:50:10;4.95;;;1.73;;
35795;SDS011;21916;52.428;13.302;2024-02-14T10:52:40;4.85;;;2.47;;
35795;SDS011;21916;52.428;13.302;2024-02-14T10:55:07;5.57;;;2.80;;
35795;SDS011;21916;52.428;13.302;2024-02-14T10:57:34;7.38;;;2.42;;
35795;SDS011;21916;52.428;13.302;2024-02-14T11:00:05;5.68;;;2.20;;
35795;SDS011;21916;52.428;13.302;2024-02-14T11:02:38;3.88;;;2.10;;
35795;SDS011;21916;52.428;13.302;2024-02-14T11:05:06;10.02;;;2.10;;
35795;SDS011;21916;52.428;13.302;2024-02-14T11:07:46;5.32;;;2.03;;
35795;SDS011;21916;52.428;13.302;2024-02-14T11:10:13;5.22;;;2.50;;
35795;SDS011;21916;52.428;13.302;2024-02-14T11:12:40;7.50;;;3.38;;
35795;SDS011;21916;52.428;13.302;2024-02-14T11:15:22;4.93;;;2.30;;
35795;SDS011;21916;52.428;13.302;2024-02-14T11:20:31;5.07;;;2.10;;
35795;SDS011;21916;52.428;13.302;2024-02-14T11:23:00;5.75;;;2.13;;
35795;SDS011;21916;52.428;13.302;2024-02-14T11:25:32;7.15;;;3.17;;
35795;SDS011;21916;52.428;13.302;2024-02-14T11:28:14;8.48;;;3.15;;
35795;SDS011;21916;52.428;13.302;2024-02-14T11:30:42;4.30;;;3.05;;
35795;SDS011;21916;52.428;13.302;2024-02-14T11:33:15;5.30;;;2.88;;
35795;SDS011;21916;52.428;13.302;2024-02-14T11:35:49;4.55;;;2.00;;
35795;SDS011;21916;52.428;13.302;2024-02-14T11:38:16;6.18;;;2.50;;
35795;SDS011;21916;52.428;13.302;2024-02-14T11:40:43;5.55;;;2.60;;
35795;SDS011;21916;52.428;13.302;2024-02-14T11:43:12;5.68;;;2.33;;
35795;SDS011;21916;52.428;13.302;2024-02-14T11:45:43;4.40;;;2.15;;
35795;SDS011;21916;52.428;13.302;2024-02-14T11:48:11;6.93;;;2.60;;
35795;SDS011;21916;52.428;13.302;2024-02-14T11:50:41;5.47;;;2.22;;
35795;SDS011;21916;52.428;13.302;2024-02-14T11:53:12;6.97;;;2.63;;
35795;SDS011;21916;52.428;13.302;2024-02-14T11:55:41;5.57;;;2.50;;
35795;SDS011;21916;52.428;13.302;2024-02-14T12:00:38;5.75;;;2.97;;
35795;SDS011;21916;52.428;13.302;2024-02-14T12:03:24;4.05;;;2.88;;
35795;SDS011;21916;52.428;13.302;2024-02-14T12:05:51;4.00;;;2.67;;
35795;SDS011;21916;52.428;13.302;2024-02-14T12:08:18;8.73;;;2.83;;
35795;SDS011;21916;52.428;13.302;2024-02-14T12:10:45;4.75;;;2.67;;
35795;SDS011;21916;52.428;13.302;2024-02-14T12:13:13;8.25;;;2.45;;
35795;SDS011;21916;52.428;13.302;2024-02-14T12:15:48;6.60;;;2.95;;
35795;SDS011;21916;52.428;13.302;2024-02-14T12:18:16;7.18;;;2.78;;
35795;SDS011;21916;52.428;13.302;2024-02-14T12:20:46;7.20;;;2.90;;
35795;SDS011;21916;52.428;13.302;2024-02-14T12:23:14;6.75;;;3.00;;
35795;SDS011;21916;52.428;13.302;2024-02-14T12:25:47;4.60;;;2.72;;
35795;SDS011;21916;52.428;13.302;2024-02-14T12:28:16;5.82;;;3.10;;
35795;SDS011;21916;52.428;13.302;2024-02-14T12:30:46;5.88;;;3.40;;
35795;SDS011;21916;52.428;13.302;2024-02-14T12:33:23;4.72;;;2.88;;
35795;SDS011;21916;52.428;13.302;2024-02-14T12:35:54;8.05;;;2.90;;
35795;SDS011;21916;52.428;13.302;2024-02-14T12:38:21;6.00;;;2.75;;
35795;SDS011;21916;52.428;13.302;2024-02-14T12:40:48;5.90;;;3.47;;
35795;SDS011;21916;52.428;13.302;2024-02-14T12:43:15;10.75;;;3.25;;
35795;SDS011;21916;52.428;13.302;2024-02-14T12:45:41;7.45;;;3.30;;
35795;SDS011;21916;52.428;13.302;2024-02-14T12:48:08;6.20;;;3.33;;
35795;SDS011;21916;52.428;13.302;2024-02-14T12:50:35;15.60;;;3.75;;
35795;SDS011;21916;52.428;13.302;2024-02-14T12:53:08;5.38;;;3.10;;
35795;SDS011;21916;52.428;13.302;2024-02-14T12:55:34;5.82;;;3.53;;
35795;SDS011;21916;52.428;13.302;2024-02-14T12:58:00;4.43;;;2.92;;
35795;SDS011;21916;52.428;13.302;2024-02-14T13:00:27;4.47;;;2.72;;
35795;SDS011;21916;52.428;13.302;2024-02-14T13:02:54;6.45;;;3.45;;
35795;SDS011;21916;52.428;13.302;2024-02-14T13:05:20;3.90;;;3.05;;
35795;SDS011;21916;52.428;13.302;2024-02-14T13:07:46;5.45;;;3.30;;
35795;SDS011;21916;52.428;13.302;2024-02-14T13:10:12;6.18;;;2.97;;
35795;SDS011;21916;52.428;13.302;2024-02-14T13:12:38;8.02;;;2.92;;
35795;SDS011;21916;52.428;13.302;2024-02-14T13:15:04;8.00;;;3.63;;
35795;SDS011;21916;52.428;13.302;2024-02-14T13:17:31;7.10;;;3.65;;
35795;SDS011;21916;52.428;13.302;2024-02-14T13:19:57;5.93;;;3.00;;
35795;SDS011;21916;52.428;13.302;2024-02-14T13:22:25;7.68;;;2.60;;
35795;SDS011;21916;52.428;13.302;2024-02-14T13:24:51;7.10;;;3.40;;
35795;SDS011;21916;52.428;13.302;2024-02-14T13:27:20;7.10;;;3.10;;
35795;SDS011;21916;52.428;13.302;2024-02-14T13:29:47;5.82;;;2.80;;
35795;SDS011;21916;52.428;13.302;2024-02-14T13:32:16;3.90;;;2.65;;
35795;SDS011;21916;52.428;13.302;2024-02-14T13:34:42;10.52;;;3.25;;
35795;SDS011;21916;52.428;13.302;2024-02-14T13:37:09;8.27;;;3.10;;
35795;SDS011;21916;52.428;13.302;2024-02-14T13:39:46;5.82;;;2.92;;
35795;SDS011;21916;52.428;13.302;2024-02-14T13:42:12;4.93;;;3.00;;
35795;SDS011;21916;52.428;13.302;2024-02-14T13:44:38;6.75;;;2.85;;
35795;SDS011;21916;52.428;13.302;2024-02-14T13:47:04;5.70;;;2.72;;
35795;SDS011;21916;52.428;13.302;2024-02-14T13:49:30;4.05;;;2.97;;
35795;SDS011;21916;52.428;13.302;2024-02-14T13:51:59;6.95;;;3.22;;
35795;SDS011;21916;52.428;13.302;2024-02-14T13:54:25;10.25;;;3.60;;
35795;SDS011;21916;52.428;13.302;2024-02-14T13:56:51;8.50;;;2.83;;
35795;SDS011;21916;52.428;13.302;2024-02-14T13:59:17;4.40;;;2.92;;
35795;SDS011;21916;52.428;13.302;2024-02-14T14:01:44;7.35;;;3.45;;
35795;SDS011;21916;52.428;13.302;2024-02-14T14:04:11;6.07;;;3.17;;
35795;SDS011;21916;52.428;13.302;2024-02-14T14:06:38;4.95;;;3.30;;
35795;SDS011;21916;52.428;13.302;2024-02-14T14:09:06;8.05;;;3.33;;
35795;SDS011;21916;52.428;13.302;2024-02-14T14:11:41;6.90;;;3.35;;
35795;SDS011;21916;52.428;13.302;2024-02-14T14:14:07;5.13;;;3.05;;
35795;SDS011;21916;52.428;13.302;2024-02-14T14:16:33;11.35;;;3.83;;
35795;SDS011;21916;52.428;13.302;2024-02-14T14:19:02;5.82;;;3.08;;
35795;SDS011;21916;52.428;13.302;2024-02-14T14:21:28;7.00;;;3.30;;
35795;SDS011;21916;52.428;13.302;2024-02-14T14:23:54;7.35;;;3.35;;
35795;SDS011;21916;52.428;13.302;2024-02-14T14:26:21;7.70;;;3.35;;
35795;SDS011;21916;52.428;13.302;2024-02-14T14:28:47;8.15;;;3.45;;
35795;SDS011;21916;52.428;13.302;2024-02-14T14:31:12;9.05;;;4.07;;
35795;SDS011;21916;52.428;13.302;2024-02-14T14:33:38;7.03;;;3.67;;
35795;SDS011;21916;52.428;13.302;2024-02-14T14:36:04;7.28;;;4.25;;
35795;SDS011;21916;52.428;13.302;2024-02-14T14:38:31;5.47;;;3.33;;
35795;SDS011;21916;52.428;13.302;2024-02-14T14:40:57;10.43;;;4.07;;
35795;SDS011;21916;52.428;13.302;2024-02-14T14:43:24;7.38;;;3.50;;
35795;SDS011;21916;52.428;13.302;2024-02-14T14:45:51;6.05;;;3.53;;